createdAt,value
2018-11-01T00:01:32.982Z,49.53
2018-11-01T00:04:04.650Z,49.74
2018-11-01T00:06:34.650Z,49.97
2018-11-01T00:09:06.042Z,50.39
2018-11-01T00:11:36.033Z,50.42
2018-11-01T00:14:09.016Z,50.35
2018-11-01T00:16:39.045Z,49.40
2018-11-01T00:19:09.091Z,50.10
2018-11-01T00:21:39.126Z,50.02
2018-11-01T00:24:09.126Z,50.38
2018-11-01T00:26:39.133Z,50.47
2018-11-01T00:29:09.612Z,50.67
2018-11-01T00:31:39.626Z,50.71
2018-11-01T00:34:09.635Z,50.21
2018-11-01T00:36:39.656Z,50.52
2018-11-01T00:39:12.109Z,50.15
2018-11-01T00:41:42.128Z,51.07
2018-11-01T00:44:12.227Z,50.61
2018-11-01T00:46:42.210Z,50.79
2018-11-01T00:49:12.263Z,51.02
2018-11-01T00:51:42.208Z,51.08
2018-11-01T00:54:12.211Z,51.45
2018-11-01T00:56:42.287Z,51.32
2018-11-01T00:59:12.350Z,52.15
2018-11-01T01:01:42.355Z,52.00
2018-11-01T01:04:12.338Z,51.89
2018-11-01T01:06:43.302Z,52.10
2018-11-01T01:09:15.078Z,52.27
2018-11-01T01:11:45.095Z,51.59
2018-11-01T01:14:15.113Z,51.55
2018-11-01T01:16:45.081Z,52.22
2018-11-01T01:19:15.696Z,51.51
2018-11-01T01:21:45.715Z,52.58
2018-11-01T01:24:15.802Z,52.25
2018-11-01T01:27:09.964Z,52.05
2018-11-01T01:29:41.012Z,52.80
2018-11-01T01:32:10.991Z,52.82
2018-11-01T01:34:41.078Z,53.48
2018-11-01T01:37:11.682Z,52.72
2018-11-01T01:39:50.358Z,53.07
2018-11-01T02:13:44.326Z,54.42
2018-11-01T02:16:14.245Z,55.25
2018-11-01T02:18:44.176Z,54.03
2018-11-01T02:21:14.163Z,54.62
2018-11-01T02:23:44.150Z,54.22
2018-11-01T02:26:14.125Z,54.67
2018-11-01T02:28:44.065Z,54.38
2018-11-01T02:31:14.025Z,54.12
2018-11-01T02:33:44.045Z,53.95
2018-11-01T02:36:14.067Z,54.27
2018-11-01T02:38:44.117Z,54.71
2018-11-01T02:41:14.057Z,54.37
2018-11-01T02:43:43.958Z,54.41
2018-11-01T02:46:13.972Z,55.53
2018-11-01T02:48:43.958Z,55.14
2018-11-01T02:51:13.899Z,54.40
2018-11-01T02:53:43.876Z,54.45
2018-11-01T02:56:13.834Z,53.96
2018-11-01T02:58:43.888Z,54.41
2018-11-01T03:01:18.367Z,54.34
2018-11-01T03:03:49.619Z,54.04
2018-11-01T03:06:19.727Z,54.71
2018-11-01T03:08:49.683Z,55.50
2018-11-01T03:11:19.673Z,54.93
2018-11-01T03:13:49.636Z,55.80
2018-11-01T03:16:19.601Z,56.54
2018-11-01T03:18:49.572Z,57.28
2018-11-01T03:21:19.505Z,57.58
2018-11-01T03:23:49.489Z,57.33
2018-11-01T03:26:19.512Z,57.52
2018-11-01T03:28:49.442Z,56.84
2018-11-01T03:31:19.445Z,57.42
2018-11-01T03:33:49.441Z,57.71
2018-11-01T03:36:19.479Z,58.27
2018-11-01T03:38:49.496Z,58.45
2018-11-01T03:41:19.540Z,58.42
2018-11-01T03:43:49.513Z,58.48
2018-11-01T03:46:19.513Z,58.32
2018-11-01T03:48:49.585Z,59.27
2018-11-01T03:51:19.553Z,59.18
2018-11-01T03:53:49.585Z,58.81
2018-11-01T03:56:19.555Z,59.21
2018-11-01T03:58:49.580Z,59.44
2018-11-01T04:01:19.542Z,59.60
2018-11-01T04:03:49.534Z,59.43
2018-11-01T04:06:19.445Z,58.73
2018-11-01T04:08:49.407Z,58.87
2018-11-01T04:11:19.365Z,58.78
2018-11-01T04:13:49.396Z,59.15
2018-11-01T04:16:19.281Z,59.46
2018-11-01T04:18:49.210Z,60.01
2018-11-01T04:21:19.210Z,59.99
2018-11-01T04:23:49.031Z,60.01
2018-11-01T04:26:19.178Z,60.09
2018-11-01T04:28:49.146Z,60.36
2018-11-01T04:31:19.095Z,60.23
2018-11-01T04:33:49.155Z,60.12
2018-11-01T04:36:19.136Z,60.37
2018-11-01T04:38:49.059Z,60.61
2018-11-01T04:41:18.990Z,60.37
2018-11-01T04:43:48.968Z,60.35
2018-11-01T04:46:18.939Z,60.87
2018-11-01T04:48:48.943Z,60.69
2018-11-01T04:51:18.859Z,60.92
2018-11-01T04:53:48.788Z,61.36
2018-11-01T04:56:18.731Z,61.37
2018-11-01T04:58:48.673Z,61.14
2018-11-01T05:01:21.402Z,60.77
2018-11-01T05:03:53.522Z,61.04
2018-11-01T05:06:23.808Z,61.66
2018-11-01T05:08:53.771Z,61.44
2018-11-01T05:11:23.774Z,61.54
2018-11-01T05:13:53.758Z,61.46
2018-11-01T05:16:23.726Z,62.06
2018-11-01T05:18:53.673Z,61.62
2018-11-01T05:21:23.637Z,61.94
2018-11-01T05:23:53.610Z,61.75
2018-11-01T05:26:23.596Z,61.87
2018-11-01T05:28:53.651Z,62.03
2018-11-01T05:31:23.639Z,62.02
2018-11-01T05:33:53.612Z,62.37
2018-11-01T05:36:23.520Z,62.34
2018-11-01T05:38:53.485Z,62.35
2018-11-01T05:41:23.656Z,62.43
2018-11-01T05:43:53.663Z,62.61
2018-11-01T05:46:23.590Z,63.12
2018-11-01T05:48:53.545Z,62.64
2018-11-01T05:51:23.459Z,62.60
2018-11-01T05:53:53.444Z,62.70
2018-11-01T05:56:23.314Z,62.73
2018-11-01T05:58:53.214Z,62.55
2018-11-01T06:01:28.251Z,63.09
2018-11-01T06:03:58.264Z,63.18
2018-11-01T06:06:28.248Z,62.83
2018-11-01T06:08:58.395Z,62.96
2018-11-01T06:11:28.362Z,62.77
2018-11-01T06:13:58.293Z,62.65
2018-11-01T06:16:28.238Z,62.66
2018-11-01T06:18:58.274Z,62.21
2018-11-01T06:21:29.169Z,62.29
2018-11-01T06:23:59.152Z,62.43
2018-11-01T06:26:29.135Z,62.19
2018-11-01T06:28:59.147Z,62.41
2018-11-01T06:31:29.116Z,62.01
2018-11-01T06:33:59.123Z,61.54
2018-11-01T06:36:29.122Z,61.93
2018-11-01T06:38:59.155Z,61.46
2018-11-01T06:41:29.120Z,61.60
2018-11-01T06:43:59.051Z,61.33
2018-11-01T06:46:29.042Z,61.43
2018-11-01T06:48:59.056Z,61.57
2018-11-01T06:51:29.059Z,61.30
2018-11-01T06:53:59.102Z,60.91
2018-11-01T06:56:29.118Z,60.92
2018-11-01T06:58:59.081Z,61.21
2018-11-01T07:01:29.074Z,60.94
2018-11-01T07:03:59.047Z,60.73
2018-11-01T07:06:28.994Z,60.38
2018-11-01T07:08:58.965Z,60.84
2018-11-01T07:11:29.038Z,60.89
2018-11-01T07:13:59.564Z,60.41
2018-11-01T07:16:29.611Z,61.03
2018-11-01T07:18:59.585Z,60.80
2018-11-01T07:21:29.543Z,60.52
2018-11-01T07:23:59.982Z,60.27
2018-11-01T07:26:30.057Z,61.01
2018-11-01T07:29:00.066Z,60.66
2018-11-01T07:31:30.069Z,60.66
2018-11-01T07:33:59.963Z,60.69
2018-11-01T07:36:29.989Z,60.37
2018-11-01T07:38:59.953Z,60.58
2018-11-01T07:41:29.930Z,60.88
2018-11-01T07:44:00.095Z,60.38
2018-11-01T07:46:30.569Z,60.33
2018-11-01T07:49:00.527Z,59.56
2018-11-01T07:51:30.473Z,60.03
2018-11-01T07:54:00.467Z,59.76
2018-11-01T07:56:30.518Z,59.71
2018-11-01T07:59:00.510Z,60.17
2018-11-01T08:01:31.675Z,59.69
2018-11-01T08:04:02.258Z,58.91
2018-11-01T08:06:32.288Z,59.38
2018-11-01T08:09:02.633Z,59.05
2018-11-01T08:11:32.771Z,59.51
2018-11-01T08:14:02.840Z,58.88
2018-11-01T08:16:32.821Z,60.28
2018-11-01T08:19:03.216Z,60.59
2018-11-01T08:21:33.239Z,59.06
2018-11-01T08:24:03.242Z,59.97
2018-11-01T08:26:33.254Z,58.73
2018-11-01T08:29:03.237Z,57.99
2018-11-01T08:31:33.263Z,57.47
2018-11-01T08:34:03.217Z,57.74
2018-11-01T08:36:33.219Z,58.57
2018-11-01T08:39:03.183Z,57.28
2018-11-01T08:41:33.139Z,57.86
2018-11-01T08:44:03.089Z,57.03
2018-11-01T08:46:33.107Z,58.24
2018-11-01T08:49:03.059Z,57.60
2018-11-01T08:51:33.091Z,58.36
2018-11-01T08:54:03.079Z,58.13
2018-11-01T08:56:33.066Z,58.07
2018-11-01T08:59:03.044Z,56.67
2018-11-01T09:01:33.320Z,55.91
2018-11-01T09:04:03.283Z,57.11
2018-11-01T09:06:33.334Z,55.66
2018-11-01T09:09:03.438Z,56.12
2018-11-01T09:11:33.460Z,57.03
2018-11-01T09:14:03.436Z,55.81
2018-11-01T09:16:33.442Z,55.89
2018-11-01T09:19:03.482Z,55.18
2018-11-01T09:21:34.064Z,56.33
2018-11-01T09:24:04.075Z,55.13
2018-11-01T09:26:34.090Z,54.96
2018-11-01T09:29:04.105Z,55.39
2018-11-01T09:31:34.062Z,55.20
2018-11-01T09:34:04.460Z,54.27
2018-11-01T09:36:34.589Z,53.90
2018-11-01T09:39:07.082Z,54.75
2018-11-01T09:41:37.169Z,54.55
2018-11-01T09:44:07.610Z,54.32
2018-11-01T09:46:37.791Z,54.53
2018-11-01T09:49:07.756Z,54.56
2018-11-01T09:51:37.738Z,54.75
2018-11-01T09:54:07.754Z,54.66
2018-11-01T09:56:37.764Z,54.25
2018-11-01T09:59:07.725Z,53.94
2018-11-01T10:01:37.679Z,53.82
2018-11-01T10:04:07.981Z,53.32
2018-11-01T10:06:38.008Z,53.92
2018-11-01T10:09:09.492Z,54.47
2018-11-01T10:11:39.468Z,53.51
2018-11-01T10:14:09.779Z,53.17
2018-11-01T10:16:40.117Z,53.67
2018-11-01T10:19:10.793Z,53.34
2018-11-01T10:21:40.825Z,53.26
2018-11-01T10:24:10.847Z,53.54
2018-11-01T10:26:40.938Z,53.21
2018-11-01T10:29:10.959Z,53.55
2018-11-01T10:31:41.075Z,53.53
2018-11-01T10:34:11.071Z,52.88
2018-11-01T10:36:41.096Z,53.39
2018-11-01T10:39:11.764Z,54.28
2018-11-01T10:41:41.701Z,53.66
2018-11-01T10:44:11.749Z,53.28
2018-11-01T10:46:41.719Z,53.61
2018-11-01T10:49:11.761Z,53.57
2018-11-01T10:51:41.760Z,53.01
2018-11-01T10:54:11.872Z,52.61
2018-11-01T10:56:41.830Z,52.68
2018-11-01T10:59:11.826Z,52.13
2018-11-01T11:01:43.986Z,52.21
2018-11-01T11:04:13.963Z,52.55
2018-11-01T11:06:44.077Z,53.01
2018-11-01T11:09:14.360Z,51.38
2018-11-01T11:11:44.326Z,51.63
2018-11-01T11:14:14.354Z,52.13
2018-11-01T11:16:44.323Z,50.70
2018-11-01T11:19:14.380Z,51.53
2018-11-01T11:21:44.451Z,51.56
2018-11-01T11:24:14.481Z,51.31
2018-11-01T11:26:44.519Z,51.22
2018-11-01T11:29:14.543Z,51.62
2018-11-01T11:31:44.572Z,52.08
2018-11-01T11:34:14.687Z,51.67
2018-11-01T11:36:44.717Z,51.74
2018-11-01T11:39:14.864Z,51.69
2018-11-01T11:41:44.829Z,51.27
2018-11-01T11:44:14.883Z,51.37
2018-11-01T11:46:44.925Z,51.29
2018-11-01T11:49:14.911Z,51.31
2018-11-01T11:51:44.977Z,51.02
2018-11-01T11:54:15.029Z,51.23
2018-11-01T11:56:45.086Z,50.75
2018-11-01T11:59:15.157Z,50.55
2018-11-01T12:01:45.215Z,50.80
2018-11-01T12:04:15.241Z,51.17
2018-11-01T12:06:45.259Z,51.33
2018-11-01T12:09:15.299Z,51.92
2018-11-01T12:11:45.291Z,51.36
2018-11-01T12:14:15.647Z,50.92
2018-11-01T12:16:45.702Z,51.02
2018-11-01T12:19:15.731Z,51.34
2018-11-01T12:21:45.785Z,51.48
2018-11-01T12:24:15.882Z,51.42
2018-11-01T12:26:45.932Z,50.88
2018-11-01T12:29:15.999Z,51.61
2018-11-01T12:31:46.027Z,51.54
2018-11-01T12:34:16.007Z,51.34
2018-11-01T12:36:46.034Z,51.35
2018-11-01T12:39:15.993Z,51.54
2018-11-01T12:41:46.004Z,51.26
2018-11-01T12:44:16.027Z,51.44
2018-11-01T12:46:45.966Z,52.00
2018-11-01T12:49:16.107Z,51.31
2018-11-01T12:51:46.217Z,51.67
2018-11-01T12:54:16.273Z,52.20
2018-11-01T12:56:46.348Z,52.18
2018-11-01T12:59:16.377Z,51.77
2018-11-01T13:01:46.427Z,52.29
2018-11-01T13:04:16.463Z,52.95
2018-11-01T13:06:46.938Z,52.80
2018-11-01T13:09:17.299Z,52.02
2018-11-01T13:11:47.299Z,52.10
2018-11-01T13:14:17.256Z,52.15
2018-11-01T13:16:47.248Z,52.81
2018-11-01T13:19:17.251Z,52.67
2018-11-01T13:21:47.306Z,52.69
2018-11-01T13:24:17.448Z,52.57
2018-11-01T13:26:47.425Z,53.24
2018-11-01T13:29:17.496Z,53.64
2018-11-01T13:31:47.413Z,54.16
2018-11-01T13:34:17.441Z,54.58
2018-11-01T13:36:47.420Z,55.06
2018-11-01T13:39:17.456Z,54.93
2018-11-01T13:41:47.583Z,54.89
2018-11-01T13:44:17.561Z,55.03
2018-11-01T13:46:47.522Z,55.39
2018-11-01T13:49:17.528Z,55.40
2018-11-01T13:51:47.500Z,55.16
2018-11-01T13:54:17.492Z,57.93
2018-11-01T13:56:47.478Z,56.91
2018-11-01T13:59:17.434Z,57.06
2018-11-01T14:01:47.481Z,57.51
2018-11-01T14:04:17.455Z,57.75
2018-11-01T14:06:47.604Z,56.89
2018-11-01T14:09:17.577Z,56.91
2018-11-01T14:11:47.631Z,57.09
2018-11-01T14:14:18.046Z,58.72
2018-11-01T14:16:47.585Z,59.14
2018-11-01T14:19:17.612Z,60.02
2018-11-01T14:21:47.616Z,60.85
2018-11-01T14:24:17.687Z,59.34
2018-11-01T14:26:47.700Z,60.68
2018-11-01T14:29:17.698Z,59.12
2018-11-01T14:31:47.728Z,60.12
2018-11-01T14:34:17.715Z,60.55
2018-11-01T14:36:47.728Z,60.30
2018-11-01T14:39:17.765Z,61.28
2018-11-01T14:41:47.806Z,60.51
2018-11-01T14:44:17.835Z,61.22
2018-11-01T14:46:47.856Z,61.42
2018-11-01T14:49:17.871Z,60.76
2018-11-01T14:51:48.383Z,61.61
2018-11-01T14:54:18.876Z,61.40
2018-11-01T14:56:50.093Z,61.50
2018-11-01T14:59:19.716Z,61.58
2018-11-01T15:01:48.409Z,61.68
2018-11-01T15:04:18.443Z,62.52
2018-11-01T15:06:49.280Z,62.22
2018-11-01T15:09:19.101Z,62.54
2018-11-01T15:11:49.141Z,62.64
2018-11-01T15:14:19.132Z,62.82
2018-11-01T15:16:49.189Z,63.33
2018-11-01T15:19:19.314Z,63.09
2018-11-01T15:21:49.268Z,63.59
2018-11-01T15:24:19.250Z,63.15
2018-11-01T15:26:49.265Z,63.68
2018-11-01T15:29:19.288Z,64.01
2018-11-01T15:31:49.336Z,64.84
2018-11-01T15:34:19.363Z,64.32
2018-11-01T15:36:49.399Z,64.50
2018-11-01T15:39:19.403Z,64.43
2018-11-01T15:41:49.392Z,65.00
2018-11-01T15:44:19.364Z,65.23
2018-11-01T15:46:49.938Z,65.46
2018-11-01T15:49:19.894Z,64.66
2018-11-01T15:51:49.935Z,65.25
2018-11-01T15:54:19.948Z,65.74
2018-11-01T15:56:49.952Z,65.92
2018-11-01T15:59:20.104Z,66.23
2018-11-01T16:01:50.078Z,65.94
2018-11-01T16:04:20.131Z,66.36
2018-11-01T16:06:50.218Z,66.05
2018-11-01T16:09:20.210Z,65.66
2018-11-01T16:11:50.186Z,66.17
2018-11-01T16:14:20.200Z,66.00
2018-11-01T16:16:50.233Z,65.95
2018-11-01T16:19:20.236Z,66.23
2018-11-01T16:21:50.173Z,66.17
2018-11-01T16:24:20.189Z,66.87
2018-11-01T16:26:50.242Z,66.66
2018-11-01T16:29:20.277Z,66.85
2018-11-01T16:31:50.352Z,66.85
2018-11-01T16:34:20.396Z,66.79
2018-11-01T16:36:50.415Z,67.09
2018-11-01T16:39:20.403Z,66.88
2018-11-01T16:41:50.425Z,67.16
2018-11-01T16:44:20.471Z,66.99
2018-11-01T16:46:50.449Z,67.03
2018-11-01T16:49:20.426Z,67.44
2018-11-01T16:51:50.374Z,67.70
2018-11-01T16:54:20.457Z,67.79
2018-11-01T16:56:50.482Z,67.67
2018-11-01T16:59:20.468Z,67.82
2018-11-01T17:01:50.490Z,67.23
2018-11-01T17:04:20.419Z,67.91
2018-11-01T17:06:50.504Z,67.44
2018-11-01T17:09:20.571Z,67.64
2018-11-01T17:11:50.621Z,67.55
2018-11-01T17:14:20.583Z,67.06
2018-11-01T17:16:50.609Z,67.03
2018-11-01T17:19:20.572Z,67.38
2018-11-01T17:21:50.534Z,67.74
2018-11-01T17:24:20.565Z,67.23
2018-11-01T17:26:50.634Z,67.42
2018-11-01T17:29:20.652Z,66.86
2018-11-01T17:31:50.677Z,67.18
2018-11-01T17:34:20.719Z,67.37
2018-11-01T17:36:50.858Z,67.14
2018-11-01T17:39:21.396Z,67.48
2018-11-01T17:41:51.644Z,67.52
2018-11-01T17:44:21.684Z,67.70
2018-11-01T17:46:51.768Z,67.36
2018-11-01T17:49:21.809Z,67.29
2018-11-01T17:51:54.525Z,67.34
2018-11-01T17:54:24.690Z,67.31
2018-11-01T17:56:54.918Z,67.34
2018-11-01T17:59:24.921Z,67.08
2018-11-01T18:01:55.109Z,67.23
2018-11-01T18:04:25.157Z,67.06
2018-11-01T18:06:55.386Z,66.78
2018-11-01T18:09:25.804Z,67.13
2018-11-01T18:11:55.787Z,67.34
2018-11-01T18:14:25.799Z,67.17
2018-11-01T18:16:55.790Z,67.08
2018-11-01T18:19:25.823Z,67.28
2018-11-01T18:21:55.823Z,67.53
2018-11-01T18:24:25.826Z,67.64
2018-11-01T18:26:55.857Z,67.29
2018-11-01T18:29:25.844Z,67.20
2018-11-01T18:31:55.848Z,67.46
2018-11-01T18:34:25.863Z,67.46
2018-11-01T18:36:55.909Z,67.62
2018-11-01T18:39:26.064Z,67.11
2018-11-01T18:41:55.963Z,67.91
2018-11-01T18:44:26.179Z,67.53
2018-11-01T18:46:56.242Z,67.53
2018-11-01T18:49:26.279Z,67.55
2018-11-01T18:51:56.229Z,68.03
2018-11-01T18:54:26.262Z,67.96
2018-11-01T18:56:56.263Z,67.59
2018-11-01T18:59:26.335Z,67.67
2018-11-01T19:01:56.361Z,68.03
2018-11-01T19:04:26.378Z,67.95
2018-11-01T19:06:56.374Z,67.96
2018-11-01T19:09:26.403Z,68.02
2018-11-01T19:11:56.401Z,67.93
2018-11-01T19:14:26.522Z,67.71
2018-11-01T19:16:56.492Z,67.75
2018-11-01T19:19:26.538Z,68.12
2018-11-01T19:21:56.673Z,68.41
2018-11-01T19:24:26.592Z,68.16
2018-11-01T19:26:56.722Z,68.12
2018-11-01T19:29:26.659Z,68.35
2018-11-01T19:31:56.666Z,68.10
2018-11-01T19:34:26.954Z,68.42
2018-11-01T19:36:56.835Z,67.85
2018-11-01T19:39:26.925Z,67.98
2018-11-01T19:41:57.052Z,67.56
2018-11-01T19:44:27.041Z,67.67
2018-11-01T19:46:57.050Z,68.08
2018-11-01T19:49:27.160Z,67.97
2018-11-01T19:51:57.200Z,68.00
2018-11-01T19:54:27.257Z,67.72
2018-11-01T19:56:57.294Z,68.14
2018-11-01T19:59:27.379Z,68.26
2018-11-01T20:01:58.260Z,67.61
2018-11-01T20:04:28.299Z,67.32
2018-11-01T20:06:58.284Z,67.69
2018-11-01T20:09:28.348Z,67.49
2018-11-01T20:11:58.341Z,67.74
2018-11-01T20:14:28.388Z,68.08
2018-11-01T20:16:58.508Z,67.49
2018-11-01T20:19:28.519Z,67.67
2018-11-01T20:21:58.709Z,67.62
2018-11-01T20:24:28.713Z,67.91
2018-11-01T20:26:58.784Z,67.61
2018-11-01T20:29:28.748Z,67.56
2018-11-01T20:31:59.081Z,67.92
2018-11-01T20:34:28.921Z,67.86
2018-11-01T20:36:58.910Z,67.53
2018-11-01T20:39:28.957Z,67.53
2018-11-01T20:41:59.036Z,67.78
2018-11-01T20:44:29.096Z,67.48
2018-11-01T20:46:59.156Z,67.56
2018-11-01T20:49:29.213Z,67.26
2018-11-01T20:51:59.352Z,67.43
2018-11-01T20:54:29.407Z,67.72
2018-11-01T20:56:59.544Z,67.24
2018-11-01T20:59:29.563Z,67.84
2018-11-01T21:01:59.618Z,67.24
2018-11-01T21:04:29.682Z,67.78
2018-11-01T21:06:59.725Z,67.87
2018-11-01T21:09:29.764Z,67.75
2018-11-01T21:11:59.913Z,67.81
2018-11-01T21:14:29.798Z,67.93
2018-11-01T21:16:59.900Z,67.94
2018-11-01T21:19:29.820Z,68.54
2018-11-01T21:21:59.817Z,68.14
2018-11-01T21:24:29.835Z,68.43
2018-11-01T21:26:59.870Z,68.52
2018-11-01T21:29:30.044Z,68.00
2018-11-01T21:32:00.008Z,68.46
2018-11-01T21:34:30.009Z,68.25
2018-11-01T21:37:00.043Z,68.19
2018-11-01T21:39:30.194Z,68.20
2018-11-01T21:42:00.339Z,68.34
2018-11-01T21:44:30.347Z,67.79
2018-11-01T21:47:00.403Z,68.15
2018-11-01T21:49:30.686Z,68.03
2018-11-01T21:52:00.848Z,67.74
2018-11-01T21:54:30.851Z,67.59
2018-11-01T21:57:00.978Z,67.78
2018-11-01T21:59:31.225Z,67.13
2018-11-01T22:02:01.346Z,67.44
2018-11-01T22:04:31.404Z,67.49
2018-11-01T22:07:01.451Z,67.11
2018-11-01T22:09:31.469Z,67.59
2018-11-01T22:12:01.434Z,67.22
2018-11-01T22:14:31.507Z,67.28
2018-11-01T22:17:01.509Z,67.39
2018-11-01T22:19:31.561Z,66.94
2018-11-01T22:22:01.579Z,66.83
2018-11-01T22:24:31.625Z,66.99
2018-11-01T22:27:02.288Z,66.84
2018-11-01T22:29:32.246Z,66.94
2018-11-01T22:32:03.054Z,67.08
2018-11-01T22:34:33.177Z,66.98
2018-11-01T22:37:03.155Z,66.12
2018-11-01T22:39:33.170Z,66.57
2018-11-01T22:42:03.470Z,66.38
2018-11-01T22:44:33.448Z,66.34
2018-11-01T22:47:03.446Z,66.56
2018-11-01T22:49:33.466Z,66.20
2018-11-01T22:52:03.428Z,66.03
2018-11-01T22:54:33.465Z,66.21
2018-11-01T22:57:03.505Z,66.15
2018-11-01T22:59:33.496Z,65.92
2018-11-01T23:02:04.023Z,65.92
2018-11-01T23:04:34.219Z,66.07
2018-11-01T23:07:04.224Z,65.84
2018-11-01T23:09:34.207Z,65.72
2018-11-01T23:12:04.113Z,65.62
2018-11-01T23:14:34.068Z,65.58
2018-11-01T23:17:04.031Z,65.72
2018-11-01T23:19:34.006Z,65.63
2018-11-01T23:22:04.004Z,65.52
2018-11-01T23:24:33.963Z,65.43
2018-11-01T23:27:03.989Z,65.38
2018-11-01T23:29:33.916Z,65.46
2018-11-01T23:32:04.066Z,64.96
2018-11-01T23:34:33.956Z,65.28
2018-11-01T23:37:08.896Z,65.38
2018-11-01T23:39:43.839Z,65.27
2018-11-01T23:42:18.760Z,65.32
2018-11-01T23:44:53.841Z,64.68
2018-11-01T23:47:28.741Z,65.23
2018-11-01T23:50:08.541Z,65.09
2018-11-01T23:52:40.001Z,65.16
2018-11-01T23:55:09.894Z,64.90
2018-11-01T23:57:39.784Z,65.29
